createdAt,value
2023-09-08T00:00:24.286Z,41.52
2023-09-08T00:02:53.153Z,39.60
2023-09-08T00:05:21.766Z,38.97
2023-09-08T00:07:50.623Z,36.34
2023-09-08T00:10:19.226Z,41.36
2023-09-08T00:12:47.858Z,39.63
2023-09-08T00:15:16.341Z,39.32
2023-09-08T00:17:44.417Z,41.15
2023-09-08T00:20:13.303Z,39.76
2023-09-08T00:22:42.270Z,39.46
2023-09-08T00:25:11.104Z,40.57
2023-09-08T00:27:39.687Z,43.77
2023-09-08T00:30:09.369Z,41.00
2023-09-08T00:32:38.182Z,42.66
2023-09-08T00:35:13.269Z,43.71
2023-09-08T00:37:43.085Z,44.26
2023-09-08T00:40:13.204Z,45.18
2023-09-08T00:42:41.760Z,44.94
2023-09-08T00:45:10.895Z,45.51
2023-09-08T00:47:39.646Z,45.35
2023-09-08T00:50:09.024Z,45.52
2023-09-08T00:52:38.089Z,49.82
2023-09-08T00:55:07.255Z,46.28
2023-09-08T00:57:36.094Z,48.03
2023-09-08T01:00:08.124Z,48.35
2023-09-08T01:02:36.917Z,49.59
2023-09-08T01:05:05.696Z,49.25
2023-09-08T01:07:35.413Z,50.18
2023-09-08T01:10:08.596Z,50.76
2023-09-08T01:12:37.395Z,51.92
2023-09-08T01:15:10.084Z,53.41
2023-09-08T01:17:38.865Z,53.06
2023-09-08T01:20:31.320Z,54.23
2023-09-08T01:23:11.529Z,53.47
2023-09-08T01:26:07.373Z,55.73
2023-09-08T01:28:36.638Z,56.81
2023-09-08T01:31:06.352Z,54.80
2023-09-08T01:33:35.791Z,56.49
2023-09-08T01:36:04.468Z,58.23
2023-09-08T01:38:33.552Z,56.22
2023-09-08T01:41:04.149Z,56.65
2023-09-08T01:43:32.765Z,58.46
2023-09-08T01:46:00.806Z,59.85
2023-09-08T01:48:29.813Z,61.34
2023-09-08T01:50:58.321Z,59.53
2023-09-08T01:53:26.814Z,62.45
2023-09-08T01:55:55.423Z,65.56
2023-09-08T01:58:24.164Z,67.08
2023-09-08T02:00:56.312Z,66.05
2023-09-08T02:03:25.043Z,67.93
2023-09-08T02:05:54.268Z,66.38
2023-09-08T02:08:22.866Z,67.47
2023-09-08T02:10:51.381Z,68.10
2023-09-08T02:13:19.980Z,68.32
2023-09-08T02:15:48.963Z,70.68
2023-09-08T02:18:17.615Z,71.16
2023-09-08T02:20:46.164Z,71.17
2023-09-08T02:23:14.885Z,71.84
2023-09-08T02:25:43.415Z,72.52
2023-09-08T02:28:11.965Z,72.02
2023-09-08T02:30:40.504Z,71.80
2023-09-08T02:33:08.928Z,73.61
2023-09-08T02:35:43.899Z,71.30
2023-09-08T02:38:12.912Z,69.29
2023-09-08T02:40:41.401Z,71.94
2023-09-08T02:43:10.050Z,73.27
2023-09-08T02:45:38.689Z,72.81
2023-09-08T02:48:07.595Z,74.57
2023-09-08T02:50:36.217Z,75.60
2023-09-08T02:53:04.822Z,75.86
2023-09-08T02:55:33.493Z,76.60
2023-09-08T02:58:02.010Z,77.51
2023-09-08T03:00:30.546Z,78.01
2023-09-08T03:02:59.144Z,76.88
2023-09-08T03:05:28.447Z,78.75
2023-09-08T03:07:57.211Z,78.16
2023-09-08T03:10:25.844Z,77.78
2023-09-08T03:12:54.455Z,79.75
2023-09-08T03:15:23.600Z,79.45
2023-09-08T03:17:52.240Z,79.32
2023-09-08T03:20:20.963Z,80.44
2023-09-08T03:22:49.785Z,80.62
2023-09-08T03:25:18.393Z,81.22
2023-09-08T03:27:47.099Z,81.76
2023-09-08T03:30:16.062Z,81.84
2023-09-08T03:32:44.550Z,83.78
2023-09-08T03:35:13.207Z,83.06
2023-09-08T03:37:41.832Z,83.04
2023-09-08T03:40:11.472Z,83.97
2023-09-08T03:42:40.166Z,82.65
2023-09-08T03:45:09.226Z,81.07
2023-09-08T03:47:37.848Z,83.48
2023-09-08T03:50:06.896Z,82.17
2023-09-08T03:52:35.567Z,82.59
2023-09-08T03:55:04.311Z,82.97
2023-09-08T03:57:33.393Z,83.12
2023-09-08T04:00:01.989Z,83.09
2023-09-08T04:02:30.386Z,82.16
2023-09-08T04:04:59.140Z,83.22
2023-09-08T04:07:28.094Z,81.65
2023-09-08T04:09:56.736Z,80.89
2023-09-08T04:12:25.353Z,81.23
2023-09-08T04:14:54.077Z,82.01
2023-09-08T04:17:22.903Z,82.08
2023-09-08T04:19:52.116Z,81.84
2023-09-08T04:22:20.347Z,82.09
2023-09-08T04:24:48.866Z,81.36
2023-09-08T04:27:17.426Z,81.72
2023-09-08T04:29:46.067Z,81.74
2023-09-08T04:32:14.614Z,82.83
2023-09-08T04:34:44.802Z,82.91
2023-09-08T04:37:13.478Z,82.75
2023-09-08T04:39:42.287Z,83.18
2023-09-08T04:42:10.893Z,82.29
2023-09-08T04:44:39.431Z,82.79
2023-09-08T04:47:07.702Z,80.39
2023-09-08T04:49:36.404Z,80.40
2023-09-08T04:52:05.208Z,80.84
2023-09-08T04:54:34.265Z,78.56
2023-09-08T04:57:16.196Z,78.80
2023-09-08T04:59:51.236Z,77.90
2023-09-08T05:02:21.227Z,80.25
2023-09-08T05:04:50.304Z,80.15
2023-09-08T05:07:21.405Z,81.17
2023-09-08T05:09:50.122Z,80.38
2023-09-08T05:12:18.793Z,80.79
2023-09-08T05:14:47.663Z,81.18
2023-09-08T05:17:16.217Z,81.76
2023-09-08T05:19:44.731Z,81.66
2023-09-08T05:22:13.372Z,82.24
2023-09-08T05:24:41.978Z,83.64
2023-09-08T05:27:10.562Z,80.81
2023-09-08T05:29:39.222Z,82.29
2023-09-08T05:32:07.803Z,82.46
2023-09-08T05:34:36.734Z,82.47
2023-09-08T05:37:05.443Z,83.08
2023-09-08T05:39:34.063Z,82.29
2023-09-08T05:42:02.654Z,82.30
2023-09-08T05:44:31.234Z,83.83
2023-09-08T05:47:00.461Z,83.49
2023-09-08T05:49:29.277Z,83.76
2023-09-08T05:51:58.001Z,82.50
2023-09-08T05:54:26.857Z,83.74
2023-09-08T05:56:55.415Z,84.72
2023-09-08T05:59:24.034Z,82.85
2023-09-08T06:01:52.782Z,83.15
2023-09-08T06:04:21.328Z,83.41
2023-09-08T06:06:50.187Z,83.53
2023-09-08T06:09:19.271Z,84.59
2023-09-08T06:11:48.546Z,84.40
2023-09-08T06:14:17.132Z,86.18
2023-09-08T06:16:45.795Z,84.60
2023-09-08T06:19:15.028Z,85.54
2023-09-08T06:21:43.572Z,85.81
2023-09-08T06:24:11.602Z,85.55
2023-09-08T06:26:41.131Z,85.94
2023-09-08T06:29:10.030Z,86.39
2023-09-08T06:31:38.685Z,87.72
2023-09-08T06:34:07.446Z,87.41
2023-09-08T06:36:36.112Z,86.91
2023-09-08T06:39:06.343Z,87.90
2023-09-08T06:41:34.936Z,86.84
2023-09-08T06:44:03.499Z,87.18
2023-09-08T06:46:32.173Z,87.67
2023-09-08T06:49:02.314Z,87.31
2023-09-08T06:51:32.582Z,88.22
2023-09-08T06:54:02.632Z,88.79
2023-09-08T06:56:31.798Z,87.42
2023-09-08T06:59:00.475Z,88.46
2023-09-08T07:01:29.398Z,89.50
2023-09-08T07:03:58.279Z,89.24
2023-09-08T07:06:27.026Z,89.22
2023-09-08T07:08:56.207Z,87.72
2023-09-08T07:11:24.902Z,87.63
2023-09-08T07:13:53.544Z,86.38
2023-09-08T07:16:22.305Z,86.13
2023-09-08T07:18:50.942Z,86.19
2023-09-08T07:21:19.750Z,86.32
2023-09-08T07:23:48.541Z,85.74
2023-09-08T07:26:17.167Z,85.91
2023-09-08T07:28:45.851Z,86.14
2023-09-08T07:31:14.724Z,86.28
2023-09-08T07:33:43.488Z,87.41
2023-09-08T07:36:12.796Z,88.62
2023-09-08T07:38:41.493Z,89.37
2023-09-08T07:41:10.311Z,89.65
2023-09-08T07:43:42.883Z,91.06
2023-09-08T07:46:11.539Z,91.00
2023-09-08T07:48:40.469Z,92.08
2023-09-08T07:51:09.383Z,92.17
2023-09-08T07:53:38.539Z,93.11
2023-09-08T07:56:07.425Z,93.24
2023-09-08T07:58:36.470Z,94.65
2023-09-08T08:01:05.308Z,94.79
2023-09-08T08:03:33.927Z,94.36
2023-09-08T08:06:02.568Z,94.58
2023-09-08T08:08:31.276Z,94.63
2023-09-08T08:11:00.057Z,94.66
2023-09-08T08:13:28.827Z,94.72
2023-09-08T08:15:57.373Z,94.94
2023-09-08T08:18:26.097Z,94.21
2023-09-08T08:20:54.959Z,94.09
2023-09-08T08:23:23.529Z,93.09
2023-09-08T08:25:52.614Z,93.27
2023-09-08T08:28:21.216Z,92.94
2023-09-08T08:30:50.010Z,92.13
2023-09-08T08:33:18.822Z,91.88
2023-09-08T08:35:54.810Z,92.00
2023-09-08T08:38:23.493Z,90.99
2023-09-08T08:40:52.070Z,91.70
2023-09-08T08:43:21.814Z,90.24
2023-09-08T08:45:51.936Z,90.04
2023-09-08T08:48:23.509Z,89.85
2023-09-08T08:50:53.416Z,91.07
2023-09-08T08:53:23.654Z,90.87
2023-09-08T08:55:56.342Z,90.73
2023-09-08T08:58:28.894Z,90.93
2023-09-08T09:00:59.827Z,92.18
2023-09-08T09:03:33.543Z,91.66
2023-09-08T09:06:03.127Z,91.35
2023-09-08T09:08:32.566Z,91.17
2023-09-08T09:11:01.204Z,91.68
2023-09-08T09:13:29.832Z,91.25
2023-09-08T09:16:03.703Z,92.09
2023-09-08T09:18:33.587Z,92.35
2023-09-08T09:21:04.032Z,92.51
2023-09-08T09:23:37.238Z,91.75
2023-09-08T09:26:09.238Z,91.97
2023-09-08T09:28:50.426Z,91.87
2023-09-08T09:31:19.039Z,91.83
2023-09-08T09:33:48.101Z,91.57
2023-09-08T09:36:23.720Z,91.87
2023-09-08T09:38:52.512Z,91.71
2023-09-08T09:41:21.103Z,92.50
2023-09-08T09:43:50.046Z,92.76
2023-09-08T09:46:18.710Z,93.96
2023-09-08T09:48:47.258Z,93.84
2023-09-08T09:51:20.948Z,94.11
2023-09-08T09:53:50.972Z,93.66
2023-09-08T09:56:25.549Z,93.41
2023-09-08T09:58:56.550Z,93.08
2023-09-08T10:01:27.581Z,93.48
2023-09-08T10:03:57.628Z,92.95
2023-09-08T10:06:28.602Z,93.49
2023-09-08T10:08:57.731Z,93.41
2023-09-08T10:11:31.724Z,94.34
2023-09-08T10:14:02.698Z,94.48
2023-09-08T10:16:37.146Z,94.25
2023-09-08T10:19:11.246Z,94.34
2023-09-08T10:21:45.419Z,94.94
2023-09-08T10:24:47.541Z,94.89
2023-09-08T10:27:21.546Z,94.14
2023-09-08T10:29:51.227Z,94.65
2023-09-08T10:32:20.985Z,95.19
2023-09-08T10:34:51.427Z,94.17
2023-09-08T10:37:28.089Z,94.79
2023-09-08T10:39:57.177Z,94.64
2023-09-08T10:42:29.196Z,94.71
2023-09-08T10:45:04.637Z,94.99
2023-09-08T10:47:56.624Z,95.34
2023-09-08T10:50:36.659Z,95.36
2023-09-08T10:53:21.593Z,95.17
2023-09-08T10:56:15.947Z,95.30
2023-09-08T10:58:45.253Z,94.95
2023-09-08T11:01:21.722Z,95.16
2023-09-08T11:03:52.751Z,95.77
2023-09-08T11:06:26.129Z,96.12
2023-09-08T11:08:58.453Z,95.88
2023-09-08T11:11:28.079Z,96.14
2023-09-08T11:13:56.664Z,96.42
2023-09-08T11:16:31.371Z,97.15
2023-09-08T11:19:00.325Z,96.76
2023-09-08T11:21:29.362Z,96.72
2023-09-08T11:23:58.332Z,96.24
2023-09-08T11:26:27.066Z,96.46
2023-09-08T11:28:56.749Z,96.68
2023-09-08T11:31:25.302Z,96.56
2023-09-08T11:33:57.549Z,97.27
2023-09-08T11:36:26.104Z,96.93
2023-09-08T11:38:55.326Z,96.88
2023-09-08T11:41:26.406Z,97.73
2023-09-08T11:43:55.306Z,97.58
2023-09-08T11:46:24.551Z,98.21
2023-09-08T11:48:53.214Z,98.04
2023-09-08T11:51:26.232Z,98.68
2023-09-08T11:53:55.607Z,98.59
2023-09-08T11:56:24.407Z,98.67
2023-09-08T11:58:54.154Z,98.21
2023-09-08T12:01:23.041Z,98.10
2023-09-08T12:04:00.459Z,97.32
2023-09-08T12:06:32.812Z,97.88
2023-09-08T12:09:06.990Z,97.90
2023-09-08T12:11:43.838Z,97.51
2023-09-08T12:14:17.001Z,96.82
2023-09-08T12:16:46.330Z,97.00
2023-09-08T12:19:34.238Z,96.90
2023-09-08T12:22:05.370Z,97.26
2023-09-08T12:24:52.573Z,98.41
2023-09-08T12:27:22.190Z,98.60
2023-09-08T12:30:02.888Z,97.75
2023-09-08T12:32:33.647Z,97.02
2023-09-08T12:35:05.299Z,96.95
2023-09-08T12:37:36.216Z,96.65
2023-09-08T12:40:05.205Z,96.89
2023-09-08T12:42:35.651Z,96.43
2023-09-08T12:45:08.182Z,96.15
2023-09-08T12:47:37.901Z,96.17
2023-09-08T12:50:07.474Z,95.45
2023-09-08T12:52:36.262Z,95.65
2023-09-08T12:55:04.995Z,96.86
2023-09-08T12:57:33.854Z,96.44
2023-09-08T13:00:02.557Z,96.31
2023-09-08T13:02:31.381Z,96.63
2023-09-08T13:05:00.575Z,97.01
2023-09-08T13:07:29.680Z,97.81
2023-09-08T13:09:58.369Z,97.17
2023-09-08T13:12:27.432Z,97.84
2023-09-08T13:14:56.286Z,97.27
2023-09-08T13:17:24.968Z,97.09
2023-09-08T13:19:53.610Z,96.87
2023-09-08T13:22:22.181Z,96.82
2023-09-08T13:24:50.703Z,97.25
2023-09-08T13:27:20.462Z,96.28
2023-09-08T13:29:48.977Z,95.72
2023-09-08T13:32:17.942Z,95.97
2023-09-08T13:34:46.898Z,96.72
2023-09-08T13:37:17.281Z,94.70
2023-09-08T13:39:45.711Z,95.45
2023-09-08T13:42:14.338Z,94.56
2023-09-08T13:44:42.831Z,94.57
2023-09-08T13:47:11.723Z,94.95
2023-09-08T13:49:41.543Z,95.32
2023-09-08T13:52:12.420Z,94.56
2023-09-08T13:54:45.259Z,93.68
2023-09-08T13:57:14.796Z,93.74
2023-09-08T13:59:43.878Z,94.09
2023-09-08T14:04:48.775Z,94.13
2023-09-08T14:07:22.556Z,93.93
2023-09-08T14:10:05.329Z,92.43
2023-09-08T14:12:35.967Z,92.35
2023-09-08T14:15:05.755Z,92.32
2023-09-08T14:17:34.284Z,90.98
2023-09-08T14:20:02.991Z,91.05
2023-09-08T14:22:31.575Z,90.09
2023-09-08T14:25:00.194Z,90.29
2023-09-08T14:27:28.702Z,89.50
2023-09-08T14:29:57.436Z,89.50
2023-09-08T14:32:25.816Z,88.52
2023-09-08T14:34:54.523Z,89.38
2023-09-08T14:37:23.202Z,89.43
2023-09-08T14:39:51.956Z,89.69
2023-09-08T14:42:20.516Z,89.18
2023-09-08T14:44:49.172Z,89.35
2023-09-08T14:47:17.726Z,88.96
2023-09-08T14:49:46.331Z,87.85
2023-09-08T14:52:14.838Z,88.32
2023-09-08T14:54:43.763Z,87.94
2023-09-08T14:57:12.172Z,86.96
2023-09-08T14:59:40.700Z,85.35
2023-09-08T15:02:11.533Z,85.95
2023-09-08T15:04:40.406Z,84.91
2023-09-08T15:07:09.321Z,85.87
2023-09-08T15:09:38.711Z,85.28
2023-09-08T15:12:07.834Z,83.59
2023-09-08T15:14:36.446Z,82.28
2023-09-08T15:17:05.299Z,79.21
2023-09-08T15:19:33.914Z,80.03
2023-09-08T15:22:02.505Z,80.28
2023-09-08T15:24:31.078Z,75.42
2023-09-08T15:26:59.722Z,76.18
2023-09-08T15:29:28.313Z,74.70
2023-09-08T15:31:57.028Z,73.89
2023-09-08T15:34:27.451Z,73.20
2023-09-08T15:36:56.321Z,75.28
2023-09-08T15:39:24.978Z,72.94
2023-09-08T15:41:53.521Z,75.98
2023-09-08T15:44:22.045Z,76.21
2023-09-08T15:46:50.444Z,74.99
2023-09-08T15:49:21.113Z,72.90
2023-09-08T15:51:57.293Z,70.37
2023-09-08T15:54:32.794Z,71.51
2023-09-08T15:57:01.501Z,68.01
2023-09-08T15:59:30.057Z,69.39
2023-09-08T16:01:58.656Z,71.01
2023-09-08T16:04:27.486Z,65.83
2023-09-08T16:06:56.500Z,64.61
2023-09-08T16:09:25.438Z,62.15
2023-09-08T16:11:54.043Z,59.94
2023-09-08T16:14:22.561Z,60.85
2023-09-08T16:16:51.387Z,61.34
2023-09-08T16:19:20.645Z,60.81
2023-09-08T16:21:49.200Z,59.36
2023-09-08T16:24:17.723Z,61.95
2023-09-08T16:26:46.765Z,61.51
2023-09-08T16:29:15.359Z,62.42
2023-09-08T16:31:43.860Z,61.51
2023-09-08T16:34:12.218Z,61.33
2023-09-08T16:36:40.596Z,60.36
2023-09-08T16:39:09.164Z,58.39
2023-09-08T16:41:37.759Z,60.35
2023-09-08T16:44:06.455Z,60.50
2023-09-08T16:46:35.123Z,59.62
2023-09-08T16:49:03.504Z,58.80
2023-09-08T16:51:32.209Z,58.17
2023-09-08T16:54:00.801Z,57.38
2023-09-08T16:56:29.500Z,57.72
2023-09-08T16:58:58.002Z,58.47
2023-09-08T17:01:26.595Z,59.70
2023-09-08T17:03:55.549Z,55.52
2023-09-08T17:06:24.687Z,58.09
2023-09-08T17:08:53.365Z,55.41
2023-09-08T17:11:21.720Z,54.91
2023-09-08T17:13:50.237Z,55.89
2023-09-08T17:16:19.002Z,55.04
2023-09-08T17:18:47.812Z,55.73
2023-09-08T17:21:16.532Z,52.65
2023-09-08T17:23:45.182Z,52.90
2023-09-08T17:26:15.067Z,54.68
2023-09-08T17:28:43.650Z,54.92
2023-09-08T17:31:12.280Z,53.90
2023-09-08T17:33:41.048Z,52.64
2023-09-08T17:36:10.002Z,53.36
2023-09-08T17:38:38.969Z,51.87
2023-09-08T17:41:07.360Z,52.24
2023-09-08T17:43:36.117Z,53.26
2023-09-08T17:46:05.242Z,52.98
2023-09-08T17:48:33.858Z,51.38
2023-09-08T17:51:02.398Z,51.11
2023-09-08T17:53:31.004Z,50.91
2023-09-08T17:55:59.477Z,50.78
2023-09-08T17:58:27.834Z,49.05
2023-09-08T18:00:56.485Z,45.53
2023-09-08T18:03:25.233Z,46.70
2023-09-08T18:05:54.327Z,45.66
2023-09-08T18:08:22.816Z,49.42
2023-09-08T18:10:51.526Z,45.95
2023-09-08T18:13:20.771Z,45.23
2023-09-08T18:15:49.415Z,45.41
2023-09-08T18:18:17.879Z,44.42
2023-09-08T18:20:46.452Z,44.32
2023-09-08T18:23:15.027Z,43.85
2023-09-08T18:25:43.465Z,44.24
2023-09-08T18:28:12.062Z,42.97
2023-09-08T18:30:42.963Z,43.77
2023-09-08T18:33:12.471Z,44.49
2023-09-08T18:35:42.423Z,46.00
2023-09-08T18:38:11.395Z,46.50
2023-09-08T18:40:46.629Z,44.17
2023-09-08T18:43:20.419Z,43.86
2023-09-08T18:45:49.163Z,43.64
2023-09-08T18:48:17.808Z,42.00
2023-09-08T18:50:46.412Z,38.78
2023-09-08T18:53:14.775Z,40.09
2023-09-08T18:55:43.367Z,40.18
2023-09-08T18:58:12.102Z,42.81
2023-09-08T19:00:45.996Z,43.10
2023-09-08T19:03:14.889Z,42.23
2023-09-08T19:05:44.129Z,40.36
2023-09-08T19:08:12.731Z,45.02
2023-09-08T19:10:41.352Z,40.75
2023-09-08T19:13:13.984Z,39.78
2023-09-08T19:15:42.988Z,36.99
2023-09-08T19:18:11.643Z,37.56
2023-09-08T19:20:40.815Z,41.30
2023-09-08T19:23:10.532Z,40.37
2023-09-08T19:25:44.600Z,39.04
2023-09-08T19:28:16.276Z,38.90
2023-09-08T19:30:52.886Z,39.82
2023-09-08T19:33:21.565Z,38.77
2023-09-08T19:35:50.601Z,37.93
2023-09-08T19:38:22.151Z,36.56
2023-09-08T19:40:50.746Z,38.22
2023-09-08T19:43:19.276Z,39.64
2023-09-08T19:45:47.873Z,39.49
2023-09-08T19:48:16.295Z,37.08
2023-09-08T19:50:46.424Z,39.74
2023-09-08T19:53:14.962Z,37.39
2023-09-08T19:55:43.473Z,36.11
2023-09-08T19:58:11.870Z,37.92
2023-09-08T20:00:41.296Z,38.78
2023-09-08T20:03:09.894Z,36.63
2023-09-08T20:05:39.109Z,39.26
2023-09-08T20:08:07.116Z,33.52
2023-09-08T20:10:35.524Z,33.81
2023-09-08T20:13:04.956Z,35.54
2023-09-08T20:15:34.597Z,34.23
2023-09-08T20:18:04.957Z,34.63
2023-09-08T20:20:33.601Z,34.94
2023-09-08T20:23:02.685Z,36.18
2023-09-08T20:25:31.275Z,35.93
2023-09-08T20:27:59.775Z,39.25
2023-09-08T20:30:28.394Z,38.14
2023-09-08T20:32:56.955Z,39.27
2023-09-08T20:35:25.518Z,37.09
2023-09-08T20:37:54.170Z,38.52
2023-09-08T20:40:22.547Z,37.64
2023-09-08T20:42:51.480Z,38.44
2023-09-08T20:45:20.081Z,38.22
2023-09-08T20:47:50.953Z,38.17
2023-09-08T20:50:19.955Z,38.25
2023-09-08T20:52:47.891Z,37.96
2023-09-08T20:55:16.704Z,36.54
2023-09-08T20:57:45.281Z,37.59
2023-09-08T21:00:14.528Z,36.09
2023-09-08T21:02:43.214Z,39.94
2023-09-08T21:05:12.745Z,39.91
2023-09-08T21:07:41.277Z,37.70
2023-09-08T21:10:10.207Z,38.79
2023-09-08T21:12:38.945Z,38.06
2023-09-08T21:15:08.295Z,39.13
2023-09-08T21:17:36.886Z,39.23
2023-09-08T21:20:07.085Z,38.12
2023-09-08T21:22:35.678Z,39.68
2023-09-08T21:25:04.799Z,39.35
2023-09-08T21:27:33.338Z,38.52
2023-09-08T21:30:01.757Z,40.30
2023-09-08T21:32:30.357Z,38.42
2023-09-08T21:34:58.829Z,38.60
2023-09-08T21:37:27.313Z,37.97
2023-09-08T21:39:56.027Z,36.63
2023-09-08T21:42:24.631Z,38.52
2023-09-08T21:44:53.246Z,36.84
2023-09-08T21:47:21.824Z,40.08
2023-09-08T21:49:50.315Z,38.91
2023-09-08T21:52:28.011Z,36.10
2023-09-08T21:55:04.642Z,40.92
2023-09-08T21:57:33.219Z,39.20
2023-09-08T22:00:01.726Z,37.94
2023-09-08T22:02:30.529Z,40.05
2023-09-08T22:04:59.990Z,38.10
2023-09-08T22:07:28.589Z,38.46
2023-09-08T22:09:57.374Z,38.83
2023-09-08T22:12:25.557Z,38.98
2023-09-08T22:14:54.815Z,38.60
2023-09-08T22:17:22.728Z,39.87
2023-09-08T22:19:52.243Z,41.20
2023-09-08T22:22:21.146Z,38.24
2023-09-08T22:24:49.752Z,40.02
2023-09-08T22:27:18.368Z,38.35
2023-09-08T22:29:46.904Z,39.55
2023-09-08T22:32:15.404Z,39.69
2023-09-08T22:34:43.945Z,38.24
2023-09-08T22:37:12.628Z,37.85
2023-09-08T22:39:41.185Z,39.78
2023-09-08T22:42:09.776Z,39.43
2023-09-08T22:44:38.263Z,38.88
2023-09-08T22:47:12.405Z,38.70
2023-09-08T22:50:01.811Z,38.59
2023-09-08T22:52:33.360Z,39.62
2023-09-08T22:55:13.056Z,38.36
2023-09-08T22:57:51.487Z,38.18
2023-09-08T23:00:20.184Z,38.38
2023-09-08T23:02:49.186Z,38.65
2023-09-08T23:05:18.072Z,38.75
2023-09-08T23:07:47.051Z,40.04
2023-09-08T23:10:16.243Z,38.97
2023-09-08T23:12:45.358Z,42.26
2023-09-08T23:15:14.073Z,40.55
2023-09-08T23:17:42.813Z,40.84
2023-09-08T23:20:17.409Z,39.68
2023-09-08T23:22:46.679Z,39.14
2023-09-08T23:25:15.355Z,39.12
2023-09-08T23:27:43.842Z,39.54
2023-09-08T23:30:12.932Z,38.34
2023-09-08T23:32:43.455Z,40.16
2023-09-08T23:35:14.362Z,42.50
2023-09-08T23:37:43.138Z,40.64
2023-09-08T23:40:14.639Z,39.84
2023-09-08T23:42:43.211Z,40.41
2023-09-08T23:45:12.204Z,42.51
2023-09-08T23:47:41.227Z,41.10
2023-09-08T23:50:10.548Z,42.56
2023-09-08T23:52:39.159Z,43.21
2023-09-08T23:55:07.516Z,39.12
2023-09-08T23:57:36.140Z,40.53
